Home > Products > Valid Products > MTR

000
SAUS46 KSTO 252253
MTRBLU
METAR KBLU 252252Z AUTO VRB06KT 10SM SCT038 17/06 A3007 RMK AO2
SLP118 T01670056





000
SAUS46 KSTO 252153
MTRBLU
METAR KBLU 252152Z AUTO 22008G15KT 10SM SCT035 17/06 A3006 RMK AO2
SLP116 T01720061





000
SAUS46 KSTO 252053
MTRBLU
METAR KBLU 252052Z AUTO 20006KT 10SM SCT033 BKN043 16/07 A3007 RMK
AO2 LTG DSNT E SLP121 T01610072 52002





000
SAUS46 KSTO 251953
MTRBLU
METAR KBLU 251952Z AUTO 23006KT 10SM SCT034 17/07 A3007 RMK AO2 LTG
DSNT NE AND E SLP118 T01670072





000
SAUS46 KSTO 251953
MTRBLU
METAR KBLU 251952Z AUTO 23006KT 10SM SCT034 17/07 A3007 RMK AO2 LTG
DSNT NE AND E SLP118 T01670072





000
SAUS46 KSTO 251853
MTRBLU
METAR KBLU 251852Z AUTO VRB05KT 10SM SCT026 16/08 A3006 RMK AO2 LTG
DSNT N-E SLP117 T01610078





000
SAUS46 KSTO 251846
MTRBLU
SPECI KBLU 251845Z AUTO VRB06KT 10SM SCT024 16/08 A3006 RMK AO2 LTG
DSNT N-E T01610083





000
SAUS46 KSTO 251801
MTRBLU
SPECI KBLU 251759Z AUTO 27007KT 10SM BKN022 15/08 A3006 RMK AO2
T01500083





000
SAUS46 KSTO 251754
MTRBLU
METAR KBLU 251752Z AUTO VRB05KT 10SM SCT022 BKN032 15/09 A3006 RMK
AO2 SLP125 T01500089 10156 20100 53003





000
SAUS46 KSTO 251718
MTRBLU
SPECI KBLU 251717Z AUTO 26006KT 10SM BKN023 BKN028 15/09 A3006 RMK
AO2 T01500089





000
SAUS46 KSTO 251718
MTRBLU
SPECI KBLU 251717Z AUTO 26006KT 10SM BKN023 BKN028 15/09 A3006 RMK
AO2 T01500089





000
SAUS46 KSTO 251653
MTRBLU
METAR KBLU 251652Z AUTO 24004KT 10SM CLR 14/08 A3006 RMK AO2 SLP121
T01440083





000
SAUS46 KSTO 251553
MTRBLU
METAR KBLU 251552Z AUTO 26004KT 10SM CLR 14/07 A3005 RMK AO2 SLP115
T01440072





000
SAUS46 KSTO 251553
MTRBLU
METAR KBLU 251552Z AUTO 26004KT 10SM CLR 14/07 A3005 RMK AO2 SLP115
T01440072





000
SAUS46 KSTO 251453
MTRBLU
METAR KBLU 251452Z AUTO 00000KT 10SM CLR 14/08 A3005 RMK AO2 SLP112
T01440083 52004





000
SAUS46 KSTO 251353
MTRBLU
METAR KBLU 251352Z AUTO 00000KT 10SM CLR 12/07 A3005 RMK AO2 SLP114
T01220072





000
SAUS46 KSTO 251353
MTRBLU
METAR KBLU 251352Z AUTO 00000KT 10SM CLR 12/07 A3005 RMK AO2 SLP114
T01220072





000
SAUS46 KSTO 251253
MTRBLU
METAR KBLU 251252Z AUTO 00000KT 10SM CLR 12/07 A3004 RMK AO2 SLP111
T01170072





000
SAUS46 KSTO 251153
MTRBLU
METAR KBLU 251152Z AUTO 00000KT 10SM FEW080 11/08 A3003 RMK AO2
SLP113 T01110078 10122 20100 58003





000
SAUS46 KSTO 251153
MTRBLU
METAR KBLU 251152Z AUTO 00000KT 10SM FEW080 11/08 A3003 RMK AO2
SLP113 T01110078 10122 20100 58003





000
SAUS46 KSTO 251053
MTRBLU
METAR KBLU 251052Z AUTO 36004KT 10SM FEW080 12/07 A3004 RMK AO2
SLP111 T01170072





000
SAUS46 KSTO 251053
MTRBLU
METAR KBLU 251052Z AUTO 36004KT 10SM FEW080 12/07 A3004 RMK AO2
SLP111 T01170072





000
SAUS46 KSTO 250953
MTRBLU
METAR KBLU 250952Z AUTO 00000KT 10SM CLR 11/07 A3004 RMK AO2 SLP113
T01110072





000
SAUS46 KSTO 250853
MTRBLU
METAR KBLU 250852Z AUTO 03003KT 10SM BKN075 12/07 A3004 RMK AO2
SLP111 T01170072 58009





000
SAUS46 KSTO 250753
MTRBLU
METAR KBLU 250752Z AUTO 00000KT 10SM CLR 12/07 A3006 RMK AO2 SLP116
T01220072 401720078





000
SAUS46 KSTO 250654
MTRBLU
METAR KBLU 250652Z AUTO 35003KT 10SM SCT065 12/08 A3006 RMK AO2
SLP117 T01220078





000
SAUS46 KSTO 250554
MTRBLU
METAR KBLU 250552Z AUTO 00000KT 10SM FEW075 11/08 A3007 RMK AO2
SLP127 T01060078 10167 20106 53004





000
SAUS46 KSTO 250554
MTRBLU
METAR KBLU 250552Z AUTO 00000KT 10SM FEW075 11/08 A3007 RMK AO2
SLP127 T01060078 10167 20106 53004





000
SAUS46 KSTO 250454
MTRBLU
METAR KBLU 250452Z AUTO 00000KT 10SM SCT100 12/07 A3007 RMK AO2
SLP122 T01220072





000
SAUS46 KSTO 250353
MTRBLU
METAR KBLU 250352Z AUTO 00000KT 10SM OVC100 13/07 A3006 RMK AO2
SLP117 T01330072





000
SAUS46 KSTO 250253
MTRBLU
METAR KBLU 250252Z AUTO 00000KT 10SM BKN050 14/07 A3006 RMK AO2
SLP119 T01440072 55000





000
SAUS46 KSTO 250253
MTRBLU
METAR KBLU 250252Z AUTO 00000KT 10SM BKN050 14/07 A3006 RMK AO2
SLP119 T01440072 55000





000
SAUS46 KSTO 250154
MTRBLU
METAR KBLU 250152Z AUTO 23006KT 10SM FEW028 15/07 A3006 RMK AO2
SLP120 T01500072





000
SAUS46 KSTO 250053
MTRBLU
METAR KBLU 250052Z AUTO 23006KT 10SM FEW028 SCT036 BKN050 16/08
A3005 RMK AO2 LTG DSNT NE AND E SLP122 T01610078





000
SAUS46 KSTO 242353
MTRBLU
METAR KBLU 242352Z AUTO 26007KT 10SM FEW027 OVC050 16/08 A3006 RMK
AO2 SLP125 T01560078 10172 20156 57002





000
SAUS46 KSTO 242353
MTRBLU
METAR KBLU 242352Z AUTO 26007KT 10SM FEW027 OVC050 16/08 A3006 RMK
AO2 SLP125 T01560078 10172 20156 57002





000
SAUS46 KSTO 242254
MTRBLU
METAR KBLU 242252Z AUTO 23007G14KT 190V280 10SM FEW026 FEW031 BKN055
16/08 A3006 RMK AO2 SLP123 T01610083





000
SAUS46 KSTO 242154
MTRBLU
METAR KBLU 242152Z AUTO 27007KT 10SM FEW022 SCT030 BKN036 16/09
A3007 RMK AO2 SLP124 T01610089





000
SAUS46 KSTO 242054
MTRBLU
METAR KBLU 242052Z AUTO VRB05KT 10SM FEW024 SCT033 BKN042 17/09
A3007 RMK AO2 SLP125 T01670094 58005





000
SAUS46 KSTO 242045
MTRBLU
SPECI KBLU 242044Z AUTO 25008KT 10SM SCT024 SCT029 BKN044 16/09
A3007 RMK AO2 T01610089





000
SAUS46 KSTO 242026
MTRBLU
SPECI KBLU 242025Z AUTO VRB06KT 10SM SCT024 BKN029 OVC070 16/09
A3007 RMK AO2 T01610089





000
SAUS46 KSTO 241953
MTRBLU
METAR KBLU 241952Z AUTO 25008KT 10SM FEW031 SCT048 BKN065 17/08
A3008 RMK AO2 SLP128 T01670083





000
SAUS46 KSTO 241853
MTRBLU
METAR KBLU 241852Z AUTO 27005KT 10SM FEW032 SCT065 16/08 A3008 RMK
AO2 SLP131 T01610078





000
SAUS46 KSTO 241753
MTRBLU
METAR KBLU 241752Z AUTO 00000KT 10SM CLR 16/04 A3009 RMK AO2 SLP131
T01610044 10161 20078 51003





000
SAUS46 KSTO 241753
MTRBLU
METAR KBLU 241752Z AUTO 00000KT 10SM CLR 16/04 A3009 RMK AO2 SLP131
T01610044 10161 20078 51003





000
SAUS46 KSTO 241653
MTRBLU
METAR KBLU 241652Z AUTO VRB03KT 10SM CLR 16/06 A3008 RMK AO2 SLP133
T01560056





000
SAUS46 KSTO 241553
MTRBLU
METAR KBLU 241552Z AUTO VRB03KT 10SM CLR 15/03 A3008 RMK AO2 SLP134
T01500028





000
SAUS46 KSTO 241453
MTRBLU
METAR KBLU 241452Z AUTO 00000KT 10SM CLR 13/04 A3007 RMK AO2 SLP136
T01280039 53001





000
SAUS46 KSTO 241353
MTRBLU
METAR KBLU 241352Z AUTO VRB05G15KT 10SM CLR 11/04 A3007 RMK AO2
SLP134 T01110044





000
SAUS46 KSTO 241253
MTRBLU
METAR KBLU 241252Z AUTO 08005KT 10SM CLR 09/04 A3006 RMK AO2 SLP139
T00890044





000
SAUS46 KSTO 241153
MTRBLU
METAR KBLU 241152Z AUTO 03003KT 10SM CLR 10/04 A3007 RMK AO2 SLP142
70035 T01000044 10106 20083 56008





000
SAUS46 KSTO 241053
MTRBLU
METAR KBLU 241052Z AUTO VRB03KT 10SM CLR 11/05 A3008 RMK AO2 SLP149
T01060050





000
SAUS46 KSTO 241053
MTRBLU
METAR KBLU 241052Z AUTO VRB03KT 10SM CLR 11/05 A3008 RMK AO2 SLP149
T01060050





000
SAUS46 KSTO 240953
MTRBLU
METAR KBLU 240952Z AUTO 00000KT 10SM CLR 11/04 A3009 RMK AO2 SLP146
T01060044





000
SAUS46 KSTO 240953
MTRBLU
METAR KBLU 240952Z AUTO 00000KT 10SM CLR 11/04 A3009 RMK AO2 SLP146
T01060044





000
SAUS46 KSTO 240853
MTRBLU
METAR KBLU 240852Z AUTO VRB05KT 10SM CLR 10/05 A3010 RMK AO2 SLP150
T01000050 58004





000
SAUS46 KSTO 240753
MTRBLU
METAR KBLU 240752Z AUTO 34006KT 10SM CLR 09/06 A3012 RMK AO2 SLP162
T00940061 401220067





000
SAUS46 KSTO 240753
MTRBLU
METAR KBLU 240752Z AUTO 34006KT 10SM CLR 09/06 A3012 RMK AO2 SLP162
T00940061 401220067





000
SAUS46 KSTO 240653
MTRBLU
METAR KBLU 240652Z AUTO 32004KT 10SM CLR 09/06 A3012 RMK AO2 SLP163
T00890056





000
SAUS46 KSTO 240653
MTRBLU
METAR KBLU 240652Z AUTO 32004KT 10SM CLR 09/06 A3012 RMK AO2 SLP163
T00890056





000
SAUS46 KSTO 240553
MTRBLU
METAR KBLU 240552Z AUTO 00000KT 10SM BKN060 10/06 A3011 RMK AO2
SLP163 T01000056 10122 20089 50004





000
SAUS46 KSTO 240453
MTRBLU
METAR KBLU 240452Z AUTO 00000KT 10SM CLR 09/06 A3012 RMK AO2 SLP163
T00940056





000
SAUS46 KSTO 240353
MTRBLU
METAR KBLU 240352Z AUTO 34009KT 10SM CLR 09/06 A3010 RMK AO2 SLP161
T00940061





000
SAUS46 KSTO 240253
MTRBLU
METAR KBLU 240252Z AUTO 30005KT 10SM FEW041 SCT050 10/07 A3010 RMK
AO2 SLP158 T01000072 55006





000
SAUS46 KSTO 240153
MTRBLU
METAR KBLU 240152Z AUTO 31004KT 10SM CLR 12/05 A3010 RMK AO2 SLP154
T01170050





000
SAUS46 KSTO 240053
MTRBLU
METAR KBLU 240052Z AUTO VRB04KT 10SM CLR 11/06 A3010 RMK AO2 SLP154
T01110061





000
SAUS46 KSTO 232353
MTRBLU
METAR KBLU 232352Z AUTO 34005KT 10SM FEW049 BKN065 OVC100 10/05
A3012 RMK AO2 LTG DSNT S RAE43 TSE2255E00 SLP165 P0002 60028
T01000050 10111 20067 58001





000
SAUS46 KSTO 232353
MTRBLU
METAR KBLU 232352Z AUTO 34005KT 10SM FEW049 BKN065 OVC100 10/05
A3012 RMK AO2 LTG DSNT S RAE43 TSE2255E00 SLP165 P0002 60028
T01000050 10111 20067 58001





000
SAUS46 KSTO 232338
MTRBLU
SPECI KBLU 232337Z AUTO VRB03KT 10SM -RA SCT042 BKN055 OVC070 09/05
A3012 RMK AO2 LTG DSNT S TSE2255E00 P0002 T00890050





000
SAUS46 KSTO 232307
MTRBLU
SPECI KBLU 232306Z AUTO 36003KT 10SM VCTS -RA FEW026 OVC036 07/04
A3013 RMK AO2 LTG DSNT NW TSE2255E00 P0000 T00720044





000
SAUS46 KSTO 232307
MTRBLU
SPECI KBLU 232306Z AUTO 36003KT 10SM VCTS -RA FEW026 OVC036 07/04
A3013 RMK AO2 LTG DSNT NW TSE2255E00 P0000 T00720044





000
SAUS46 KSTO 232253
MTRBLU
METAR KBLU 232252Z AUTO VRB04KT 7SM -TSRA FEW010 SCT024 OVC034 07/04
A3014 RMK AO2 LTG DSNT S-NW RAB18 TSB45 SLP175 P0026 T00720044





000
SAUS46 KSTO 232253
MTRBLU
METAR KBLU 232252Z AUTO VRB04KT 7SM -TSRA FEW010 SCT024 OVC034 07/04
A3014 RMK AO2 LTG DSNT S-NW RAB18 TSB45 SLP175 P0026 T00720044





000
SAUS46 KSTO 232247
MTRBLU
SPECI KBLU 232246Z AUTO 02004KT 2SM TSRA SCT012 BKN030 OVC036 07/04
A3014 RMK AO2 LTG DSNT SW RAB18 TSB45 P0025





000
SAUS46 KSTO 232245
MTRBLU
SPECI KBLU 232243Z AUTO 36007KT 1 1/2SM VCTS +RA FEW010 BKN026
OVC032 07/04 A3014 RMK AO2 RAB18 P0023 T00720039





000
SAUS46 KSTO 232233
MTRBLU
SPECI KBLU 232232Z AUTO 33009G16KT 300V010 1 1/4SM VCTS +RA SCT010
BKN015 OVC055 07/04 A3013 RMK AO2 LTG DSNT NW RAB18 P0006 T00720044





000
SAUS46 KSTO 232233
MTRBLU
SPECI KBLU 232232Z AUTO 33009G16KT 300V010 1 1/4SM VCTS +RA SCT010
BKN015 OVC055 07/04 A3013 RMK AO2 LTG DSNT NW RAB18 P0006 T00720044





000
SAUS46 KSTO 232231
MTRBLU
SPECI KBLU 232229Z AUTO 33008G16KT 1 3/4SM VCTS +RA BKN010 BKN017
OVC055 08/05 A3013 RMK AO2 LTG DSNT NW RAB18 CIG 008V013 P0002
T00780050





000
SAUS46 KSTO 232212
MTRBLU
SPECI KBLU 232211Z AUTO 25007KT 10SM VCTS BKN010 BKN017 OVC055 11/07
A3012 RMK AO2 LTG DSNT NW CIG 006V013 T01060067





000
SAUS46 KSTO 232153
MTRBLU
METAR KBLU 232152Z AUTO VRB04KT 10SM VCTS BKN006 OVC012 11/07 A3012
RMK AO2 LTG DSNT N CIG 002V008 SLP163 T01060067





000
SAUS46 KSTO 232108
MTRBLU
SPECI KBLU 232107Z AUTO VRB06KT 10SM BKN008 BKN046 OVC080 11/07
A3012 RMK AO2 LTG DSNT N T01060072





000
SAUS46 KSTO 232108
MTRBLU
SPECI KBLU 232107Z AUTO VRB06KT 10SM BKN008 BKN046 OVC080 11/07
A3012 RMK AO2 LTG DSNT N T01060072





000
SAUS46 KSTO 232054
MTRBLU
METAR KBLU 232052Z AUTO 25005KT 9SM SCT008 SCT031 BKN046 11/07 A3013
RMK AO2 LTG DSNT N SLP164 60000 T01060072 58000





000
SAUS46 KSTO 232035
MTRBLU
SPECI KBLU 232034Z AUTO 29005KT 9SM SCT005 SCT018 BKN033 11/07 A3013
RMK AO2 LTG DSNT N T01060067





000
SAUS46 KSTO 232016
MTRBLU
SPECI KBLU 232015Z AUTO VRB03KT 3SM BR SCT003 BKN010 OVC037 09/07
A3013 RMK AO2 T00940072





000
SAUS46 KSTO 232014
MTRBLU
SPECI KBLU 232013Z AUTO VRB04KT 1 3/4SM BR SCT003 BKN008 OVC018
09/07 A3013 RMK AO2 T00890072





000
SAUS46 KSTO 232009
MTRBLU
SPECI KBLU 232007Z AUTO 27008KT 1 1/4SM BR SCT004 OVC010 09/07 A3013
RMK AO2 T00940072





000
SAUS46 KSTO 232009
MTRBLU
SPECI KBLU 232007Z AUTO 27008KT 1 1/4SM BR SCT004 OVC010 09/07 A3013
RMK AO2 T00940072





000
SAUS46 KSTO 232002
MTRBLU
SPECI KBLU 232001Z AUTO VRB06KT 8SM SCT004 BKN010 OVC033 10/07 A3013
RMK AO2 CIG 007V015 T01000072





000
SAUS46 KSTO 232002
MTRBLU
SPECI KBLU 232001Z AUTO VRB06KT 8SM SCT004 BKN010 OVC033 10/07 A3013
RMK AO2 CIG 007V015 T01000072





000
SAUS46 KSTO 231953
MTRBLU
METAR KBLU 231952Z AUTO 16005KT 6SM BR BKN004 BKN011 OVC030 09/07
A3013 RMK AO2 CIG 003V007 SLP169 T00940072





000
SAUS46 KSTO 231936
MTRBLU
SPECI KBLU 231935Z AUTO VRB04KT 5SM BR BKN004 OVC026 09/07 A3014 RMK
AO2 T00940072





000
SAUS46 KSTO 231920
MTRBLU
SPECI KBLU 231919Z AUTO 21005KT 5SM BR OVC006 09/07 A3013 RMK AO2
T00890067





000
SAUS46 KSTO 231858
MTRNUQ
METAR KNUQ 231856Z 21009G19KT 10SM SCT026 16/09 A3012 RMK AO2 SLP201
T01610094





000
SAUS46 KSTO 231858
MTRNUQ
METAR KNUQ 231856Z 21009G19KT 10SM SCT026 16/09 A3012 RMK AO2 SLP201
T01610094





000
SAUS46 KSTO 231854
MTRBLU
METAR KBLU 231852Z AUTO 18005KT 3SM BR BKN003 OVC009 08/07 A3013 RMK
AO2 RAB17E26 CIG 002V006 SLP171 P0000 T00830067





000
SAUS46 KSTO 231828
MTRBLU
SPECI KBLU 231827Z AUTO 00000KT 4SM BR OVC002 09/07 A3013 RMK AO2
RAB17E26 P0000 T00890067





000
SAUS46 KSTO 231819
MTRBLU
SPECI KBLU 231818Z AUTO 17003KT 2 1/2SM -RA BR OVC003 08/07 A3013
RMK AO2 RAB17 P0000 T00830067





000
SAUS46 KSTO 231805
MTRBLU
SPECI KBLU 231804Z AUTO 15004KT 4SM BR OVC003 08/06 A3013 RMK AO2
CIG 002V007 T00780061





000
SAUS46 KSTO 231753
MTRBLU
METAR KBLU 231752Z AUTO 16004KT 3SM BR OVC005 08/06 A3013 RMK AO2
CIG 002V008 SLP172 60007 T00780061 10083 20072 51001





000
SAUS46 KSTO 231753
MTRBLU
METAR KBLU 231752Z AUTO 16004KT 3SM BR OVC005 08/06 A3013 RMK AO2
CIG 002V008 SLP172 60007 T00780061 10083 20072 51001





000
SAUS46 KSTO 231734
MTRBLU
SPECI KBLU 231733Z AUTO 00000KT 4SM BR BKN004 OVC008 08/06 A3013 RMK
AO2 T00780061





000
SAUS46 KSTO 231727
MTRBLU
SPECI KBLU 231725Z AUTO 20004KT 2SM BR OVC004 08/06 A3014 RMK AO2
T00780061





000
SAUS46 KSTO 231715
MTRBLU
SPECI KBLU 231714Z AUTO 18005KT 1 1/4SM BR OVC002 08/06 A3013 RMK
AO2 T00780061





000
SAUS46 KSTO 231712
MTRBLU
SPECI KBLU 231711Z AUTO 18005KT 2SM BR OVC002 08/06 A3013 RMK AO2
T00780061





000
SAUS46 KSTO 231704
MTRBLU
SPECI KBLU 231703Z AUTO 18005KT 1 1/2SM BR OVC002 08/06 A3013 RMK
AO2 T00780061





000
SAUS46 KSTO 231704
MTRBLU
SPECI KBLU 231703Z AUTO 18005KT 1 1/2SM BR OVC002 08/06 A3013 RMK
AO2 T00780061





000
SAUS46 KSTO 231653
MTRBLU
METAR KBLU 231652Z AUTO VRB03KT 1/2SM FG OVC002 08/06 A3013 RMK AO2
SLP171 T00780061





000
SAUS46 KSTO 231651
MTRBLU
SPECI KBLU 231650Z AUTO 20004KT 3/4SM BR OVC002 08/06 A3013 RMK AO2





000
SAUS46 KSTO 231645
MTRBLU
SPECI KBLU 231644Z AUTO 18005KT 1 3/4SM BR OVC003 08/06 A3013 RMK
AO2 T00780061





000
SAUS46 KSTO 231645
MTRBLU
SPECI KBLU 231644Z AUTO 18005KT 1 3/4SM BR OVC003 08/06 A3013 RMK
AO2 T00780061





000
SAUS46 KSTO 231635
MTRBLU
SPECI KBLU 231634Z AUTO 19005KT 2SM BR OVC003 07/06 A3013 RMK AO2
T00720061





000
SAUS46 KSTO 231618
MTRBLU
SPECI KBLU 231617Z AUTO 17004KT 3SM BR OVC004 08/06 A3013 RMK AO2
CIG 002V007 T00780061





000
SAUS46 KSTO 231553
MTRBLU
METAR KBLU 231552Z AUTO 16004KT 8SM BKN005 BKN015 OVC036 07/06 A3013
RMK AO2 RAE28 SLP172 P0002 T00720056





000
SAUS46 KSTO 231533
MTRBLU
SPECI KBLU 231531Z AUTO VRB03KT 6SM BR FEW005 BKN015 OVC046 07/06
A3012 RMK AO2 RAE28 P0002 T00720056





000
SAUS46 KSTO 231533
MTRBLU
SPECI KBLU 231531Z AUTO VRB03KT 6SM BR FEW005 BKN015 OVC046 07/06
A3012 RMK AO2 RAE28 P0002 T00720056





000
SAUS46 KSTO 231524
MTRBLU
SPECI KBLU 231523Z AUTO 16004KT 4SM -RA BR SCT015 OVC038 07/06 A3012
RMK AO2 P0002 T00720056





000
SAUS46 KSTO 231524
MTRBLU
SPECI KBLU 231523Z AUTO 16004KT 4SM -RA BR SCT015 OVC038 07/06 A3012
RMK AO2 P0002 T00720056





000
SAUS46 KSTO 231504
MTRBLU
SPECI KBLU 231503Z AUTO 15003KT 2SM -RA BR FEW004 SCT017 OVC040
07/06 A3012 RMK AO2 P0000 T00720056





000
SAUS46 KSTO 231504
MTRBLU
SPECI KBLU 231503Z AUTO 15003KT 2SM -RA BR FEW004 SCT017 OVC040
07/06 A3012 RMK AO2 P0000 T00720056





000
SAUS46 KSTO 231453
MTRBLU
METAR KBLU 231452Z AUTO 00000KT 2 1/2SM -RA BR FEW002 BKN017 OVC042
07/06 A3012 RMK AO2 RAB48 SLP167 P0000 60005 T00720056 53008





000
SAUS46 KSTO 231448
MTRBLU
SPECI KBLU 231447Z AUTO 00000KT 2SM BR SCT002 BKN017 OVC044 07/06
A3012 RMK AO2





000
SAUS46 KSTO 231445
MTRBLU
SPECI KBLU 231444Z AUTO 00000KT 1 1/4SM BR SCT002 BKN017 OVC044
07/06 A3012 RMK AO2 T00720056





000
SAUS46 KSTO 231428
MTRBLU
SPECI KBLU 231427Z AUTO 15003KT 1/2SM FG BKN002 OVC017 07/06 A3011
RMK AO2 T00720061





000
SAUS46 KSTO 231428
MTRBLU
SPECI KBLU 231427Z AUTO 15003KT 1/2SM FG BKN002 OVC017 07/06 A3011
RMK AO2 T00720061





000
SAUS46 KSTO 231420
MTRBLU
SPECI KBLU 231418Z AUTO 16004KT 1SM BR BKN002 OVC015 07/06 A3011 RMK
AO2 T00720061





000
SAUS46 KSTO 231420
MTRBLU
SPECI KBLU 231418Z AUTO 16004KT 1SM BR BKN002 OVC015 07/06 A3011 RMK
AO2 T00720061





000
SAUS46 KSTO 231354
MTRBLU
METAR KBLU 231352Z AUTO 16004KT M1/4SM FG VV002 07/06 A3010 RMK AO2
RAB1254E29 SLP162 P0001 T00720061





000
SAUS46 KSTO 231314
MTRBLU
SPECI KBLU 231313Z AUTO VRB03KT 1/4SM -RA FG VV002 07/06 A3010 RMK
AO2 RAB1254 P0001 T00720061





000
SAUS46 KSTO 231253
MTRBLU
METAR KBLU 231252Z AUTO 18004KT 1 1/4SM BR OVC002 08/06 A3009 RMK
AO2 RAE44 SLP156 P0004 T00780061





000
SAUS46 KSTO 231253
MTRBLU
METAR KBLU 231252Z AUTO 18004KT 1 1/4SM BR OVC002 08/06 A3009 RMK
AO2 RAE44 SLP156 P0004 T00780061





000
SAUS46 KSTO 231232
MTRBLU
SPECI KBLU 231230Z AUTO 19003KT 1/2SM -RA FG VV002 08/06 A3009 RMK
AO2 P0003 T00780061





000
SAUS46 KSTO 231232
MTRBLU
SPECI KBLU 231230Z AUTO 19003KT 1/2SM -RA FG VV002 08/06 A3009 RMK
AO2 P0003 T00780061





000
SAUS46 KSTO 231202
MTRBLU
SPECI KBLU 231201Z AUTO 29003KT 1/4SM -RA FG BKN002 OVC009 08/06
A3009 RMK AO2 P0001 T00780061





000
SAUS46 KSTO 231158
MTRBLU
SPECI KBLU 231156Z AUTO 00000KT 1 1/4SM -RA BR BKN002 OVC009 08/06
A3009 RMK AO2 P0000 T00780061





000
SAUS46 KSTO 231158
MTRBLU
SPECI KBLU 231156Z AUTO 00000KT 1 1/4SM -RA BR BKN002 OVC009 08/06
A3009 RMK AO2 P0000 T00780061





000
SAUS46 KSTO 231153
MTRBLU
METAR KBLU 231152Z AUTO 00000KT 2SM -RA BR BKN002 OVC009 08/06 A3009
RMK AO2 RAB45 SLP154 P0000 60000 70001 T00780061 10083 20078 58002





000
SAUS46 KSTO 231153
MTRBLU
METAR KBLU 231152Z AUTO 00000KT 2SM -RA BR BKN002 OVC009 08/06 A3009
RMK AO2 RAB45 SLP154 P0000 60000 70001 T00780061 10083 20078 58002





000
SAUS46 KSTO 231140
MTRBLU
SPECI KBLU 231139Z AUTO 20004KT 5SM BR OVC009 08/06 A3009 RMK AO2
CIG 005V010 T00780061





000
SAUS46 KSTO 231140
MTRBLU
SPECI KBLU 231139Z AUTO 20004KT 5SM BR OVC009 08/06 A3009 RMK AO2
CIG 005V010 T00780061





000
SAUS46 KSTO 231114
MTRBLU
SPECI KBLU 231113Z AUTO 00000KT 4SM BR FEW005 OVC010 08/06 A3009 RMK
AO2 T00780061





000
SAUS46 KSTO 231114
MTRBLU
SPECI KBLU 231113Z AUTO 00000KT 4SM BR FEW005 OVC010 08/06 A3009 RMK
AO2 T00780061





000
SAUS46 KSTO 231053
MTRBLU
METAR KBLU 231052Z AUTO 15003KT 4SM BR FEW005 OVC009 08/06 A3010 RMK
AO2 SLP159 T00780061





000
SAUS46 KSTO 231053
MTRBLU
METAR KBLU 231052Z AUTO 15003KT 4SM BR FEW005 OVC009 08/06 A3010 RMK
AO2 SLP159 T00780061





000
SAUS46 KSTO 230954
MTRBLU
METAR KBLU 230952Z AUTO 16003KT 5SM BR OVC008 08/06 A3010 RMK AO2
SLP159 T00780061





000
SAUS46 KSTO 230909
MTRBLU
SPECI KBLU 230907Z AUTO 00000KT 4SM BR OVC009 08/07 A3010 RMK AO2
T00780067





000
SAUS46 KSTO 230853
MTRBLU
METAR KBLU 230852Z AUTO 00000KT 2SM BR OVC009 08/07 A3010 RMK AO2
SLP160 60000 T00780067 57002





000
SAUS46 KSTO 230853
MTRBLU
METAR KBLU 230852Z AUTO 00000KT 2SM BR OVC009 08/07 A3010 RMK AO2
SLP160 60000 T00780067 57002





000
SAUS46 KSTO 230848
MTRBLU
SPECI KBLU 230847Z AUTO 00000KT 2SM BR OVC009 08/07 A3010 RMK AO2
VIS 1 1/2V3





000
SAUS46 KSTO 230848
MTRBLU
SPECI KBLU 230847Z AUTO 00000KT 2SM BR OVC009 08/07 A3010 RMK AO2
VIS 1 1/2V3





000
SAUS46 KSTO 230839
MTRBLU
SPECI KBLU 230838Z AUTO 00000KT 1 1/2SM BR BKN008 OVC032 08/06 A3010
RMK AO2 T00780061





000
SAUS46 KSTO 230823
MTRBLU
SPECI KBLU 230821Z AUTO 00000KT 3/4SM BR FEW002 BKN008 OVC034 08/06
A3010 RMK AO2 T00780061





000
SAUS46 KSTO 230823
MTRBLU
SPECI KBLU 230821Z AUTO 00000KT 3/4SM BR FEW002 BKN008 OVC034 08/06
A3010 RMK AO2 T00780061





000
SAUS46 KSTO 230818
MTRBLU
SPECI KBLU 230817Z AUTO 00000KT 1SM BR BKN005 BKN011 OVC036 08/06
A3010 RMK AO2 T00780061





000
SAUS46 KSTO 230818
MTRBLU
SPECI KBLU 230817Z AUTO 00000KT 1SM BR BKN005 BKN011 OVC036 08/06
A3010 RMK AO2 T00780061





000
SAUS46 KSTO 230810
MTRBLU
SPECI KBLU 230809Z AUTO 00000KT 1 1/2SM BR SCT003 BKN007 OVC036
08/07 A3010 RMK AO2 T00780067





000
SAUS46 KSTO 230807
MTRBLU
SPECI KBLU 230806Z AUTO 00000KT 2SM BR BKN003 BKN007 OVC036 08/07
A3010 RMK AO2 T00780067





000
SAUS46 KSTO 230759
MTRBLU
SPECI KBLU 230758Z AUTO VRB03KT 1 1/2SM BR BKN003 OVC007 08/06 A3010
RMK AO2 T00780061





000
SAUS46 KSTO 230754
MTRBLU
METAR KBLU 230752Z AUTO 16003KT 1/2SM FG BKN003 OVC007 08/07 A3010
RMK AO2 RAE0656 SLP162 P0000 T00780067 401000061





000
SAUS46 KSTO 230754
MTRBLU
METAR KBLU 230752Z AUTO 16003KT 1/2SM FG BKN003 OVC007 08/07 A3010
RMK AO2 RAE0656 SLP162 P0000 T00780067 401000061





000
SAUS46 KSTO 230715
MTRBLU
SPECI KBLU 230714Z AUTO 16005KT 1/4SM FG VV002 08/07 A3010 RMK AO2
RAE0656 P0000 T00780067





000
SAUS46 KSTO 230715
MTRBLU
SPECI KBLU 230714Z AUTO 16005KT 1/4SM FG VV002 08/07 A3010 RMK AO2
RAE0656 P0000 T00780067





000
SAUS46 KSTO 230653
MTRBLU
METAR KBLU 230652Z AUTO 20004KT 1/2SM -RA FG VV002 08/07 A3010 RMK
AO2 RAB45 SLP163 P0000 T00780067





000
SAUS46 KSTO 230653
MTRBLU
METAR KBLU 230652Z AUTO 20004KT 1/2SM -RA FG VV002 08/07 A3010 RMK
AO2 RAB45 SLP163 P0000 T00780067





000
SAUS46 KSTO 230649
MTRBLU
SPECI KBLU 230648Z AUTO 18003KT 1/2SM -RA FG VV002 08/07 A3010 RMK
AO2 RAB45 P0000





000
SAUS46 KSTO 230649
MTRBLU
SPECI KBLU 230648Z AUTO 18003KT 1/2SM -RA FG VV002 08/07 A3010 RMK
AO2 RAB45 P0000





000
SAUS46 KSTO 230615
MTRBLU
SPECI KBLU 230614Z AUTO VRB04KT 1/4SM FG VV002 08/07 A3010 RMK AO2
T00830067





000
SAUS46 KSTO 230615
MTRBLU
SPECI KBLU 230614Z AUTO VRB04KT 1/4SM FG VV002 08/07 A3010 RMK AO2
T00830067





000
SAUS46 KSTO 230600
MTRBLU
SPECI KBLU 230559Z AUTO 20003KT 1/2SM FG VV002 08/07 A3010 RMK AO2
T00780067





000
SAUS46 KSTO 230600
MTRBLU
SPECI KBLU 230559Z AUTO 20003KT 1/2SM FG VV002 08/07 A3010 RMK AO2
T00780067





000
SAUS46 KSTO 230553
MTRBLU
METAR KBLU 230552Z AUTO 20004KT 1SM BR VV002 08/07 A3010 RMK AO2
SLP163 60001 T00780067 10094 20078 53009





000
SAUS46 KSTO 230553
MTRBLU
METAR KBLU 230552Z AUTO 20004KT 1SM BR VV002 08/07 A3010 RMK AO2
SLP163 60001 T00780067 10094 20078 53009





000
SAUS46 KSTO 230547
MTRBLU
SPECI KBLU 230545Z AUTO 17004KT 1 3/4SM BR OVC002 08/07 A3010 RMK
AO2 T00830067





000
SAUS46 KSTO 230547
MTRBLU
SPECI KBLU 230545Z AUTO 17004KT 1 3/4SM BR OVC002 08/07 A3010 RMK
AO2 T00830067





000
SAUS46 KSTO 230454
MTRBLU
METAR KBLU 230452Z AUTO 20004KT 3SM BR OVC002 08/07 A3009 RMK AO2
SLP158 P0001 T00830067





000
SAUS46 KSTO 230353
MTRBLU
METAR KBLU 230352Z AUTO 25003KT 5SM BR OVC003 08/07 A3008 RMK AO2
RAB27E52 SLP154 P0000 T00830067





000
SAUS46 KSTO 230254
MTRBLU
METAR KBLU 230252Z AUTO 23004KT 5SM BR BKN004 OVC012 09/07 A3007 RMK
AO2 CIG 002V009 SLP152 T00890072 53004





000
SAUS46 KSTO 230209
MTRBLU
SPECI KBLU 230207Z AUTO 20003KT 6SM BR BKN003 OVC007 09/07 A3006 RMK
AO2 T00890072





000
SAUS46 KSTO 230153
MTRBLU
METAR KBLU 230152Z AUTO 00000KT 6SM BR BKN005 OVC008 09/07 A3006 RMK
AO2 CIG 003V007 SLP148 T00890072





000
SAUS46 KSTO 230130
MTRBLU
SPECI KBLU 230129Z AUTO 21004KT 8SM BKN004 BKN010 OVC013 09/07 A3006
RMK AO2 CIG 003V007 T00890067





000
SAUS46 KSTO 230130
MTRBLU
SPECI KBLU 230129Z AUTO 21004KT 8SM BKN004 BKN010 OVC013 09/07 A3006
RMK AO2 CIG 003V007 T00890067





000
SAUS46 KSTO 230124
MTRBLU
SPECI KBLU 230122Z AUTO 23005KT 7SM SCT004 OVC011 09/07 A3006 RMK
AO2 T00890067





000
SAUS46 KSTO 230124
MTRBLU
SPECI KBLU 230122Z AUTO 23005KT 7SM SCT004 OVC011 09/07 A3006 RMK
AO2 T00890067





000
SAUS46 KSTO 230113
MTRBLU
SPECI KBLU 230112Z AUTO 22005KT 7SM BKN004 BKN009 OVC016 09/07 A3006
RMK AO2 T00890072





000
SAUS46 KSTO 230053
MTRBLU
METAR KBLU 230052Z AUTO 22005KT 9SM BKN006 OVC011 09/07 A3006 RMK
AO2 CIG 003V009 SLP145 T00940072





000
SAUS46 KSTO 230053
MTRBLU
METAR KBLU 230052Z AUTO 22005KT 9SM BKN006 OVC011 09/07 A3006 RMK
AO2 CIG 003V009 SLP145 T00940072





000
SAUS46 KSTO 230008
MTRBLU
SPECI KBLU 230007Z AUTO 22006KT 10SM SCT006 OVC011 09/07 A3005 RMK
AO2 T00940067





000
SAUS46 KSTO 230008
MTRBLU
SPECI KBLU 230007Z AUTO 22006KT 10SM SCT006 OVC011 09/07 A3005 RMK
AO2 T00940067





    US Dept of Commerce
    National Oceanic and Atmospheric Administration
    National Weather Service
    1325 East West Highway
    Silver Spring, MD 20910
    Page Author: NWS Internet Services Team
Disclaimer
Information Quality
Credits
Glossary
Privacy Policy
Freedom of Information Act (FOIA)
About Us
Career Opportunities